createdAt,value
2017-05-20T00:01:30.076Z,92.20
2017-05-20T00:03:58.364Z,92.10
2017-05-20T00:06:26.653Z,92.10
2017-05-20T00:08:55.114Z,92.20
2017-05-20T00:11:23.492Z,92.20
2017-05-20T00:13:51.773Z,92.20
2017-05-20T00:16:20.084Z,92.10
2017-05-20T00:18:48.472Z,92.20
2017-05-20T00:21:16.804Z,92.30
2017-05-20T00:23:45.189Z,92.30
2017-05-20T00:26:13.769Z,92.40
2017-05-20T00:28:42.048Z,92.50
2017-05-20T00:31:10.425Z,92.50
2017-05-20T00:33:38.800Z,92.50
2017-05-20T00:36:07.179Z,92.50
2017-05-20T00:38:35.560Z,92.70
2017-05-20T00:41:03.940Z,92.90
2017-05-20T00:43:32.249Z,93.10
2017-05-20T00:46:00.600Z,93.20
2017-05-20T00:48:28.876Z,93.20
2017-05-20T00:50:57.451Z,93.50
2017-05-20T00:53:25.937Z,93.20
2017-05-20T00:55:54.220Z,93.10
2017-05-20T00:58:22.527Z,93.40
2017-05-20T01:00:50.845Z,93.40
2017-05-20T01:03:19.190Z,93.50
2017-05-20T01:05:47.537Z,93.50
2017-05-20T01:08:15.828Z,93.50
2017-05-20T01:10:44.149Z,93.70
2017-05-20T01:13:12.469Z,93.80
2017-05-20T01:15:40.768Z,93.90
2017-05-20T01:18:09.065Z,94.10
2017-05-20T01:20:37.773Z,94.80
2017-05-20T01:23:06.065Z,95.10
2017-05-20T01:25:34.392Z,95.10
2017-05-20T01:28:02.687Z,96.70
2017-05-20T01:30:31.444Z,96.80
2017-05-20T01:32:59.810Z,97.00
2017-05-20T01:35:28.093Z,96.90
2017-05-20T01:37:56.381Z,96.90
2017-05-20T01:40:24.701Z,96.90
2017-05-20T01:42:53.081Z,96.90
2017-05-20T01:45:21.407Z,97.10
2017-05-20T01:47:49.684Z,97.20
2017-05-20T01:50:17.963Z,97.20
2017-05-20T01:52:46.392Z,97.10
2017-05-20T01:55:14.772Z,97.10
2017-05-20T01:57:43.153Z,97.20
2017-05-20T02:00:11.484Z,97.30
2017-05-20T02:02:39.808Z,97.30
2017-05-20T02:05:08.087Z,97.60
2017-05-20T02:07:36.413Z,97.90
2017-05-20T02:10:04.735Z,98.10
2017-05-20T02:12:33.116Z,98.20
2017-05-20T02:15:01.427Z,98.20
2017-05-20T02:17:29.710Z,98.10
2017-05-20T02:19:58.024Z,98.20
2017-05-20T02:22:26.538Z,98.20
2017-05-20T02:24:54.820Z,98.10
2017-05-20T02:27:23.200Z,98.10
2017-05-20T02:29:51.572Z,98.10
2017-05-20T02:32:19.871Z,98.20
2017-05-20T02:34:48.152Z,98.20
2017-05-20T02:37:16.567Z,98.30
2017-05-20T02:39:44.948Z,98.50
2017-05-20T02:42:13.223Z,98.40
2017-05-20T02:44:42.489Z,98.20
2017-05-20T02:47:10.800Z,98.20
2017-05-20T02:49:39.185Z,98.10
2017-05-20T02:52:07.493Z,97.90
2017-05-20T02:54:35.839Z,97.90
2017-05-20T02:57:04.156Z,97.50
2017-05-20T02:59:32.506Z,97.30
2017-05-20T03:02:00.789Z,97.00
2017-05-20T03:04:29.149Z,96.80
2017-05-20T03:06:57.425Z,96.60
2017-05-20T03:09:25.700Z,96.60
2017-05-20T03:11:54.013Z,96.60
2017-05-20T03:14:22.368Z,96.50
2017-05-20T03:16:50.737Z,96.20
2017-05-20T03:19:19.060Z,96.10
2017-05-20T03:21:47.388Z,95.90
2017-05-20T03:24:15.772Z,95.90
2017-05-20T03:26:44.152Z,95.90
2017-05-20T03:29:12.533Z,95.70
2017-05-20T03:31:40.835Z,95.80
2017-05-20T03:34:09.159Z,95.60
2017-05-20T03:36:37.436Z,95.70
2017-05-20T03:39:05.716Z,95.50
2017-05-20T03:41:34.417Z,95.60
2017-05-20T03:44:02.792Z,95.60
2017-05-20T03:46:31.069Z,95.50
2017-05-20T03:48:59.375Z,95.40
2017-05-20T03:51:27.680Z,95.30
2017-05-20T03:53:55.995Z,95.00
2017-05-20T03:56:24.379Z,94.90
2017-05-20T03:58:52.655Z,95.00
2017-05-20T04:01:21.039Z,94.90
2017-05-20T04:03:49.316Z,94.90
2017-05-20T04:06:17.692Z,94.90
2017-05-20T04:08:46.013Z,94.90
2017-05-20T04:11:14.349Z,94.90
2017-05-20T04:13:43.189Z,94.90
2017-05-20T04:16:11.496Z,94.90
2017-05-20T04:18:39.897Z,94.90
2017-05-20T04:21:08.185Z,94.90
2017-05-20T04:23:36.565Z,94.90
2017-05-20T04:26:04.840Z,94.90
2017-05-20T04:28:33.239Z,94.90
2017-05-20T04:31:01.548Z,94.90
2017-05-20T04:33:29.897Z,94.90
2017-05-20T04:35:58.202Z,94.70
2017-05-20T04:38:26.527Z,94.60
2017-05-20T04:40:55.471Z,94.70
2017-05-20T04:43:23.774Z,94.40
2017-05-20T04:45:52.116Z,94.10
2017-05-20T04:48:20.408Z,94.00
2017-05-20T04:50:48.684Z,93.20
2017-05-20T04:53:17.002Z,92.50
2017-05-20T04:55:45.289Z,92.20
2017-05-20T04:58:13.609Z,91.90
2017-05-20T05:00:42.177Z,91.60
2017-05-20T05:03:10.513Z,90.90
2017-05-20T05:05:39.025Z,90.60
2017-05-20T05:08:08.568Z,90.60
2017-05-20T05:10:36.857Z,89.00
2017-05-20T05:13:05.154Z,87.50
2017-05-20T05:15:33.465Z,86.40
2017-05-20T05:18:01.799Z,84.90
2017-05-20T05:20:30.079Z,82.60
2017-05-20T05:22:58.400Z,81.00
2017-05-20T05:25:26.785Z,80.00
2017-05-20T05:27:55.061Z,79.10
2017-05-20T05:30:23.368Z,76.90
2017-05-20T05:32:51.655Z,77.30
2017-05-20T05:35:20.814Z,77.50
2017-05-20T05:37:49.096Z,76.20
2017-05-20T05:40:17.380Z,75.20
2017-05-20T05:42:46.048Z,73.90
2017-05-20T05:45:14.359Z,72.50
2017-05-20T05:47:42.640Z,71.60
2017-05-20T05:50:10.968Z,70.50
2017-05-20T05:52:39.689Z,70.20
2017-05-20T05:55:07.974Z,69.60
2017-05-20T05:57:36.732Z,67.10
2017-05-20T06:00:05.007Z,67.60
2017-05-20T06:02:33.279Z,67.10
2017-05-20T06:05:01.773Z,66.70
2017-05-20T06:07:30.358Z,66.20
2017-05-20T06:09:58.875Z,67.00
2017-05-20T06:12:27.470Z,66.30
2017-05-20T06:14:56.447Z,66.90
2017-05-20T06:17:25.002Z,65.70
2017-05-20T06:19:53.489Z,67.20
2017-05-20T06:22:23.097Z,67.10
2017-05-20T06:24:51.616Z,66.70
2017-05-20T06:27:20.371Z,66.20
2017-05-20T06:29:49.360Z,65.00
2017-05-20T06:32:17.944Z,65.50
2017-05-20T06:34:46.251Z,64.50
2017-05-20T06:37:14.603Z,64.20
2017-05-20T06:39:42.880Z,64.70
2017-05-20T06:42:11.155Z,65.00
2017-05-20T06:44:39.533Z,63.90
2017-05-20T06:47:08.112Z,64.30
2017-05-20T06:49:36.496Z,64.30
2017-05-20T06:52:04.869Z,64.20
2017-05-20T06:54:33.172Z,63.90
2017-05-20T06:57:01.624Z,63.30
2017-05-20T06:59:29.909Z,62.10
2017-05-20T07:01:58.280Z,61.50
2017-05-20T07:04:26.556Z,61.80
2017-05-20T07:06:54.943Z,61.60
2017-05-20T07:09:23.252Z,59.10
2017-05-20T07:11:51.587Z,56.50
2017-05-20T07:14:19.902Z,58.30
2017-05-20T07:16:48.459Z,56.00
2017-05-20T07:19:16.836Z,58.00
2017-05-20T07:21:45.215Z,58.00
2017-05-20T07:24:13.580Z,58.90
2017-05-20T07:26:41.868Z,58.70
2017-05-20T07:29:10.149Z,56.70
2017-05-20T07:31:38.524Z,55.70
2017-05-20T07:34:06.798Z,54.20
2017-05-20T07:36:35.105Z,54.60
2017-05-20T07:39:03.432Z,53.50
2017-05-20T07:41:31.704Z,54.60
2017-05-20T07:43:59.981Z,51.90
2017-05-20T07:46:28.305Z,53.50
2017-05-20T07:48:56.579Z,52.30
2017-05-20T07:51:24.940Z,53.70
2017-05-20T07:53:53.627Z,54.00
2017-05-20T07:56:21.896Z,54.20
2017-05-20T07:58:50.176Z,51.90
2017-05-20T08:01:18.628Z,50.30
2017-05-20T08:03:46.904Z,51.90
2017-05-20T08:06:15.180Z,52.00
2017-05-20T08:08:43.588Z,49.90
2017-05-20T08:11:11.864Z,48.70
2017-05-20T08:13:40.170Z,48.10
2017-05-20T08:16:08.544Z,48.30
2017-05-20T08:18:36.816Z,48.30
2017-05-20T08:21:17.885Z,47.50
2017-05-20T08:23:46.156Z,47.50
2017-05-20T08:26:14.485Z,48.00
2017-05-20T08:28:42.820Z,48.30
2017-05-20T08:31:11.092Z,46.70
2017-05-20T08:33:39.575Z,47.00
2017-05-20T08:36:07.840Z,47.90
2017-05-20T08:38:36.235Z,47.30
2017-05-20T08:41:04.921Z,48.20
2017-05-20T08:43:33.192Z,47.30
2017-05-20T08:46:01.474Z,45.40
2017-05-20T08:48:30.058Z,45.50
2017-05-20T08:50:58.334Z,45.00
2017-05-20T08:53:26.608Z,44.00
2017-05-20T08:55:54.927Z,45.30
2017-05-20T08:58:23.269Z,44.30
2017-05-20T09:00:51.648Z,44.10
2017-05-20T09:03:19.952Z,43.70
2017-05-20T09:05:48.219Z,43.90
2017-05-20T09:08:16.782Z,45.10
2017-05-20T09:10:45.060Z,45.40
2017-05-20T09:13:13.436Z,44.70
2017-05-20T09:15:41.815Z,44.40
2017-05-20T09:18:10.206Z,41.70
2017-05-20T09:20:38.480Z,41.30
2017-05-20T09:23:06.964Z,41.00
2017-05-20T09:25:35.333Z,38.90
2017-05-20T09:28:03.612Z,40.00
2017-05-20T09:30:32.366Z,39.50
2017-05-20T09:33:00.784Z,39.70
2017-05-20T09:35:29.161Z,40.10
2017-05-20T09:37:57.744Z,40.50
2017-05-20T09:40:26.124Z,41.20
2017-05-20T09:42:54.405Z,40.00
2017-05-20T09:45:22.785Z,40.60
2017-05-20T09:47:51.064Z,41.00
2017-05-20T09:50:19.432Z,40.00
2017-05-20T09:52:47.812Z,39.20
2017-05-20T09:55:16.117Z,40.30
2017-05-20T09:57:44.431Z,38.30
2017-05-20T10:00:12.713Z,39.10
2017-05-20T10:02:40.989Z,38.10
2017-05-20T10:05:09.300Z,38.40
2017-05-20T10:07:37.599Z,37.00
2017-05-20T10:10:05.875Z,34.50
2017-05-20T10:12:34.639Z,34.50
2017-05-20T10:15:02.916Z,34.30
2017-05-20T10:17:31.197Z,34.60
2017-05-20T10:19:59.528Z,35.40
2017-05-20T10:22:27.800Z,34.60
2017-05-20T10:24:56.080Z,35.90
2017-05-20T10:27:24.396Z,36.50
2017-05-20T10:29:52.680Z,35.70
2017-05-20T10:32:20.966Z,36.00
2017-05-20T10:34:49.273Z,35.90
2017-05-20T10:37:17.563Z,36.00
2017-05-20T10:39:45.897Z,34.80
2017-05-20T10:42:14.208Z,37.10
2017-05-20T10:44:42.492Z,38.40
2017-05-20T10:47:10.815Z,38.40
2017-05-20T10:49:39.091Z,38.30
2017-05-20T10:52:07.369Z,39.10
2017-05-20T10:54:35.691Z,38.60
2017-05-20T10:57:03.967Z,38.20
2017-05-20T10:59:32.248Z,37.20
2017-05-20T11:02:00.567Z,37.10
2017-05-20T11:04:28.076Z,37.20
2017-05-20T11:06:56.357Z,38.00
2017-05-20T11:09:24.680Z,38.30
2017-05-20T11:11:52.964Z,37.10
2017-05-20T11:14:21.261Z,37.30
2017-05-20T11:16:49.827Z,37.90
2017-05-20T11:19:18.109Z,37.80
2017-05-20T11:21:46.383Z,37.10
2017-05-20T11:24:14.857Z,38.40
2017-05-20T11:26:43.140Z,37.30
2017-05-20T11:29:11.424Z,36.30
2017-05-20T11:31:39.727Z,36.20
2017-05-20T11:34:08.009Z,35.60
2017-05-20T11:36:36.555Z,35.80
2017-05-20T11:39:04.831Z,34.90
2017-05-20T11:41:33.108Z,36.80
2017-05-20T11:44:01.439Z,34.70
2017-05-20T11:46:29.719Z,34.90
2017-05-20T11:48:58.002Z,33.00
2017-05-20T11:51:26.315Z,33.70
2017-05-20T11:53:54.620Z,34.90
2017-05-20T11:56:22.904Z,34.10
2017-05-20T11:58:51.455Z,33.30
2017-05-20T12:01:19.743Z,33.40
2017-05-20T12:03:48.029Z,32.70
2017-05-20T12:06:16.345Z,32.40
2017-05-20T12:08:44.620Z,33.30
2017-05-20T12:11:12.939Z,32.80
2017-05-20T12:13:41.255Z,32.80
2017-05-20T12:16:09.559Z,32.80
2017-05-20T12:18:37.849Z,32.00
2017-05-20T12:21:06.163Z,31.50
2017-05-20T12:23:34.460Z,31.70
2017-05-20T12:26:02.732Z,31.00
2017-05-20T12:28:31.058Z,31.20
2017-05-20T12:30:59.716Z,30.00
2017-05-20T12:33:27.988Z,30.00
2017-05-20T12:35:56.312Z,31.00
2017-05-20T12:38:24.588Z,29.50
2017-05-20T12:40:52.868Z,29.20
2017-05-20T12:43:21.177Z,29.50
2017-05-20T12:45:49.708Z,30.00
2017-05-20T12:48:17.992Z,29.00
2017-05-20T12:50:45.500Z,29.00
2017-05-20T12:53:13.826Z,29.10
2017-05-20T12:55:42.100Z,29.20
2017-05-20T12:58:10.384Z,29.80
2017-05-20T13:00:39.464Z,29.10
2017-05-20T13:03:07.744Z,30.00
2017-05-20T13:05:36.027Z,29.70
2017-05-20T13:08:04.357Z,30.00
2017-05-20T13:10:32.650Z,29.80
2017-05-20T13:13:00.930Z,30.00
2017-05-20T13:15:29.239Z,28.60
2017-05-20T13:17:58.704Z,29.10
2017-05-20T13:20:26.989Z,28.20
2017-05-20T13:22:55.289Z,27.90
2017-05-20T13:25:23.611Z,27.80
2017-05-20T13:27:51.916Z,27.80
2017-05-20T13:30:20.198Z,29.60
2017-05-20T13:32:48.507Z,28.90
2017-05-20T13:35:16.788Z,29.00
2017-05-20T13:37:45.122Z,30.00
2017-05-20T13:40:13.743Z,28.70
2017-05-20T13:42:42.085Z,29.00
2017-05-20T13:45:10.367Z,28.10
2017-05-20T13:47:38.692Z,27.70
2017-05-20T13:50:06.969Z,28.30
2017-05-20T13:52:35.296Z,27.00
2017-05-20T13:55:03.632Z,28.10
2017-05-20T13:57:31.947Z,28.00
2017-05-20T14:00:00.327Z,27.30
2017-05-20T14:02:29.112Z,27.10
2017-05-20T14:04:57.397Z,26.40
2017-05-20T14:07:25.679Z,27.40
2017-05-20T14:09:53.990Z,27.00
2017-05-20T14:12:22.629Z,26.80
2017-05-20T14:14:50.904Z,26.20
2017-05-20T14:17:19.173Z,26.50
2017-05-20T14:19:47.500Z,27.00
2017-05-20T14:22:15.839Z,27.90
2017-05-20T14:24:44.120Z,27.70
2017-05-20T14:27:12.800Z,27.50
2017-05-20T14:29:41.075Z,27.90
2017-05-20T14:32:09.352Z,28.00
2017-05-20T14:34:37.683Z,27.90
2017-05-20T14:37:05.960Z,28.30
2017-05-20T14:39:34.284Z,28.00
2017-05-20T14:42:02.871Z,26.70
2017-05-20T14:44:31.152Z,27.30
2017-05-20T14:46:59.529Z,25.40
2017-05-20T14:49:28.004Z,25.40
2017-05-20T14:51:56.385Z,24.90
2017-05-20T14:54:24.661Z,25.40
2017-05-20T14:56:52.967Z,25.50
2017-05-20T14:59:21.324Z,25.90
2017-05-20T15:01:49.723Z,26.00
2017-05-20T15:04:19.045Z,25.70
2017-05-20T15:06:47.384Z,25.70
2017-05-20T15:09:15.669Z,24.80
2017-05-20T15:11:44.044Z,25.60
2017-05-20T15:14:12.329Z,25.40
2017-05-20T15:16:40.695Z,25.90
2017-05-20T15:19:09.178Z,26.20
2017-05-20T15:21:37.456Z,25.30
2017-05-20T15:24:05.733Z,26.50
2017-05-20T15:26:34.060Z,26.50
2017-05-20T15:29:02.331Z,26.90
2017-05-20T15:31:30.657Z,26.90
2017-05-20T15:33:58.963Z,26.70
2017-05-20T15:36:27.233Z,26.90
2017-05-20T15:38:55.532Z,26.80
2017-05-20T15:41:23.835Z,26.20
2017-05-20T15:43:52.136Z,27.10
2017-05-20T15:46:20.412Z,26.80
2017-05-20T15:48:48.903Z,25.80
2017-05-20T15:51:17.172Z,25.70
2017-05-20T15:53:45.452Z,25.40
2017-05-20T15:56:13.771Z,24.50
2017-05-20T15:58:42.045Z,23.60
2017-05-20T16:01:10.324Z,24.10
2017-05-20T16:03:38.743Z,25.10
2017-05-20T16:06:07.020Z,25.30
2017-05-20T16:08:35.301Z,25.30
2017-05-20T16:11:03.608Z,25.20
2017-05-20T16:13:31.887Z,25.50
2017-05-20T16:16:00.161Z,25.70
2017-05-20T16:18:28.479Z,25.20
2017-05-20T16:20:56.760Z,25.60
2017-05-20T16:23:25.041Z,26.30
2017-05-20T16:25:54.142Z,26.50
2017-05-20T16:28:22.412Z,26.50
2017-05-20T16:30:50.705Z,26.60
2017-05-20T16:33:19.024Z,26.60
2017-05-20T16:35:47.304Z,26.50
2017-05-20T16:38:14.839Z,26.90
2017-05-20T16:40:43.116Z,26.90
2017-05-20T16:43:11.455Z,27.00
2017-05-20T16:45:39.731Z,27.80
2017-05-20T16:48:08.029Z,27.20
2017-05-20T16:50:36.331Z,27.10
2017-05-20T16:53:04.613Z,27.50
2017-05-20T16:55:32.887Z,26.60
2017-05-20T16:58:01.209Z,25.90
2017-05-20T17:00:29.484Z,25.30
2017-05-20T17:02:57.802Z,23.50
2017-05-20T17:05:26.171Z,23.50
2017-05-20T17:07:54.533Z,23.60
2017-05-20T17:10:23.123Z,23.70
2017-05-20T17:12:51.443Z,23.70
2017-05-20T17:15:20.600Z,23.20
2017-05-20T17:17:48.891Z,22.70
2017-05-20T17:20:17.217Z,22.00
2017-05-20T17:22:45.508Z,21.50
2017-05-20T17:25:13.038Z,21.50
2017-05-20T17:27:41.644Z,20.70
2017-05-20T17:30:09.924Z,20.90
2017-05-20T17:32:38.214Z,21.10
2017-05-20T17:35:06.541Z,21.10
2017-05-20T17:37:34.825Z,20.50
2017-05-20T17:40:03.096Z,20.20
2017-05-20T17:42:31.501Z,20.30
2017-05-20T17:44:59.785Z,19.50
2017-05-20T17:47:28.085Z,19.80
2017-05-20T17:49:56.731Z,20.10
2017-05-20T17:52:24.999Z,19.70
2017-05-20T17:54:53.277Z,19.50
2017-05-20T17:57:21.583Z,19.70
2017-05-20T17:59:49.883Z,19.70
2017-05-20T18:02:18.228Z,20.00
2017-05-20T18:04:46.701Z,20.20
2017-05-20T18:07:14.986Z,20.80
2017-05-20T18:09:43.268Z,20.90
2017-05-20T18:12:12.144Z,21.40
2017-05-20T18:14:40.426Z,22.20
2017-05-20T18:17:08.696Z,22.50
2017-05-20T18:19:37.016Z,22.80
2017-05-20T18:22:05.301Z,23.10
2017-05-20T18:24:33.954Z,23.50
2017-05-20T18:27:03.137Z,23.80
2017-05-20T18:29:31.420Z,24.20
2017-05-20T18:31:59.693Z,24.90
2017-05-20T18:34:28.016Z,25.50
2017-05-20T18:36:56.293Z,26.00
2017-05-20T18:39:24.569Z,26.50
2017-05-20T18:41:52.892Z,27.30
2017-05-20T18:44:22.214Z,27.50
2017-05-20T18:46:50.553Z,28.10
2017-05-20T18:49:19.154Z,28.10
2017-05-20T18:51:47.434Z,28.80
2017-05-20T18:54:14.965Z,28.90
2017-05-20T18:56:43.309Z,30.30
2017-05-20T18:59:10.853Z,30.30
2017-05-20T19:01:39.191Z,32.60
2017-05-20T19:04:08.628Z,33.20
2017-05-20T19:06:36.197Z,33.20
2017-05-20T19:09:05.890Z,34.20
2017-05-20T19:11:34.184Z,35.70
2017-05-20T19:14:02.472Z,35.60
2017-05-20T19:16:31.065Z,36.10
2017-05-20T19:18:58.588Z,36.20
2017-05-20T19:21:27.267Z,37.40
2017-05-20T19:23:56.081Z,37.50
2017-05-20T19:26:24.369Z,38.00
2017-05-20T19:28:52.649Z,39.10
2017-05-20T19:31:21.384Z,39.80
2017-05-20T19:33:49.661Z,41.00
2017-05-20T19:36:17.935Z,40.80
2017-05-20T19:38:46.251Z,40.70
2017-05-20T19:41:14.524Z,42.00
2017-05-20T19:43:42.806Z,42.60
2017-05-20T19:46:11.111Z,43.90
2017-05-20T19:48:39.436Z,44.20
2017-05-20T19:51:07.728Z,44.40
2017-05-20T19:53:36.030Z,44.60
2017-05-20T19:56:04.374Z,46.50
2017-05-20T19:58:32.650Z,47.60
2017-05-20T20:01:00.977Z,48.70
2017-05-20T20:03:29.248Z,49.20
2017-05-20T20:05:57.516Z,49.20
2017-05-20T20:08:25.907Z,48.90
2017-05-20T20:10:55.086Z,48.80
2017-05-20T20:13:23.353Z,49.30
2017-05-20T20:15:51.676Z,50.10
2017-05-20T20:18:19.944Z,50.60
2017-05-20T20:20:48.211Z,52.20
2017-05-20T20:23:16.640Z,52.10
2017-05-20T20:25:44.917Z,51.40
2017-05-20T20:28:13.196Z,53.40
2017-05-20T20:30:41.668Z,52.70
2017-05-20T20:33:10.057Z,52.60
2017-05-20T20:35:38.325Z,53.30
2017-05-20T20:38:06.632Z,53.20
2017-05-20T20:40:34.931Z,53.90
2017-05-20T20:43:03.200Z,54.40
2017-05-20T20:45:30.736Z,54.40
2017-05-20T20:47:59.021Z,54.80
2017-05-20T20:50:27.295Z,54.90
2017-05-20T20:52:55.753Z,54.90
2017-05-20T20:55:24.025Z,55.10
2017-05-20T20:57:52.297Z,55.60
2017-05-20T21:00:20.780Z,56.10
2017-05-20T21:02:49.055Z,56.50
2017-05-20T21:05:17.339Z,56.40
2017-05-20T21:07:45.920Z,56.90
2017-05-20T21:10:14.197Z,57.60
2017-05-20T21:12:42.576Z,58.30
2017-05-20T21:15:11.159Z,58.20
2017-05-20T21:17:39.435Z,57.70
2017-05-20T21:20:07.709Z,58.60
2017-05-20T21:22:36.397Z,58.70
2017-05-20T21:25:04.672Z,59.40
2017-05-20T21:27:32.951Z,59.10
2017-05-20T21:30:01.355Z,59.10
2017-05-20T21:32:29.723Z,59.10
2017-05-20T21:34:57.997Z,59.30
2017-05-20T21:37:26.300Z,60.40
2017-05-20T21:39:55.630Z,60.80
2017-05-20T21:42:23.905Z,61.50
2017-05-20T21:44:52.176Z,60.10
2017-05-20T21:47:20.699Z,60.30
2017-05-20T21:49:48.984Z,60.60
2017-05-20T21:52:17.364Z,60.10
2017-05-20T21:54:45.840Z,61.60
2017-05-20T21:57:14.215Z,61.80
2017-05-20T21:59:42.488Z,61.90
2017-05-20T22:02:10.800Z,61.80
2017-05-20T22:04:39.148Z,61.80
2017-05-20T22:07:07.421Z,61.70
2017-05-20T22:09:35.811Z,61.70
2017-05-20T22:12:04.184Z,61.60
2017-05-20T22:14:32.461Z,63.00
2017-05-20T22:17:01.059Z,63.80
2017-05-20T22:19:29.331Z,63.60
2017-05-20T22:21:57.708Z,63.40
2017-05-20T22:24:26.084Z,64.70
2017-05-20T22:26:54.359Z,65.00
2017-05-20T22:29:22.623Z,63.90
2017-05-20T22:31:50.941Z,64.10
2017-05-20T22:34:19.221Z,64.00
2017-05-20T22:36:47.495Z,63.90
2017-05-20T22:39:15.796Z,64.40
2017-05-20T22:41:44.071Z,63.80
2017-05-20T22:44:12.370Z,63.90
2017-05-20T22:46:40.671Z,64.50
2017-05-20T22:49:08.944Z,65.50
2017-05-20T22:51:37.216Z,64.60
2017-05-20T22:54:05.515Z,63.70
2017-05-20T22:56:33.815Z,63.90
2017-05-20T22:59:02.090Z,64.10
2017-05-20T23:01:30.423Z,63.80
2017-05-20T23:03:58.696Z,63.80
2017-05-20T23:06:26.965Z,63.50
2017-05-20T23:08:55.273Z,64.30
2017-05-20T23:11:23.552Z,63.90
2017-05-20T23:13:51.856Z,64.20
2017-05-20T23:16:20.128Z,64.40
2017-05-20T23:18:48.428Z,64.70
2017-05-20T23:21:17.045Z,64.70
2017-05-20T23:23:45.312Z,65.00
2017-05-20T23:26:13.581Z,65.40
2017-05-20T23:28:41.887Z,65.30
2017-05-20T23:31:10.157Z,65.40
2017-05-20T23:33:38.466Z,65.70
2017-05-20T23:36:06.764Z,66.00
2017-05-20T23:38:35.061Z,65.50
2017-05-20T23:41:03.364Z,65.90
2017-05-20T23:43:31.636Z,65.90
2017-05-20T23:45:59.956Z,65.20
2017-05-20T23:48:28.225Z,65.90
2017-05-20T23:50:56.492Z,66.80
2017-05-20T23:53:24.789Z,66.00
2017-05-20T23:55:53.060Z,66.30
2017-05-20T23:58:21.360Z,66.50
